sensor_id;sensor_type;location;lat;lon;timestamp;P1;durP1;ratioP1;P2;durP2;ratioP2
22138;SDS011;25815;52.582;13.408;2023-03-09T00:00:52;25.35;;;12.82;;
22138;SDS011;25815;52.582;13.408;2023-03-09T00:03:18;24.65;;;12.50;;
22138;SDS011;25815;52.582;13.408;2023-03-09T00:05:51;24.17;;;13.30;;
22138;SDS011;25815;52.582;13.408;2023-03-09T00:08:18;24.73;;;13.32;;
22138;SDS011;25815;52.582;13.408;2023-03-09T00:10:43;25.58;;;13.55;;
22138;SDS011;25815;52.582;13.408;2023-03-09T00:13:10;25.17;;;13.38;;
22138;SDS011;25815;52.582;13.408;2023-03-09T00:15:35;25.45;;;13.65;;
22138;SDS011;25815;52.582;13.408;2023-03-09T00:18:01;23.88;;;12.95;;
22138;SDS011;25815;52.582;13.408;2023-03-09T00:20:27;23.50;;;12.93;;
22138;SDS011;25815;52.582;13.408;2023-03-09T00:22:53;24.13;;;13.07;;
22138;SDS011;25815;52.582;13.408;2023-03-09T00:25:20;22.10;;;12.13;;
22138;SDS011;25815;52.582;13.408;2023-03-09T00:27:47;22.75;;;12.85;;
22138;SDS011;25815;52.582;13.408;2023-03-09T00:30:13;25.65;;;13.57;;
22138;SDS011;25815;52.582;13.408;2023-03-09T00:32:39;24.48;;;13.73;;
22138;SDS011;25815;52.582;13.408;2023-03-09T00:35:05;21.55;;;12.93;;
22138;SDS011;25815;52.582;13.408;2023-03-09T00:37:33;24.83;;;13.63;;
22138;SDS011;25815;52.582;13.408;2023-03-09T00:39:59;24.95;;;12.48;;
22138;SDS011;25815;52.582;13.408;2023-03-09T00:42:25;22.58;;;12.52;;
22138;SDS011;25815;52.582;13.408;2023-03-09T00:44:51;25.10;;;13.45;;
22138;SDS011;25815;52.582;13.408;2023-03-09T00:47:17;27.13;;;14.18;;
22138;SDS011;25815;52.582;13.408;2023-03-09T00:49:46;25.25;;;14.05;;
22138;SDS011;25815;52.582;13.408;2023-03-09T00:52:12;24.38;;;13.30;;
22138;SDS011;25815;52.582;13.408;2023-03-09T00:54:38;22.30;;;13.57;;
22138;SDS011;25815;52.582;13.408;2023-03-09T00:57:04;27.58;;;14.48;;
22138;SDS011;25815;52.582;13.408;2023-03-09T00:59:30;24.20;;;13.55;;
22138;SDS011;25815;52.582;13.408;2023-03-09T01:01:56;22.08;;;12.73;;
22138;SDS011;25815;52.582;13.408;2023-03-09T01:04:23;26.67;;;14.32;;
22138;SDS011;25815;52.582;13.408;2023-03-09T01:06:49;24.55;;;13.05;;
22138;SDS011;25815;52.582;13.408;2023-03-09T01:09:15;27.65;;;14.70;;
22138;SDS011;25815;52.582;13.408;2023-03-09T01:11:41;26.88;;;15.07;;
22138;SDS011;25815;52.582;13.408;2023-03-09T01:14:07;26.02;;;14.40;;
22138;SDS011;25815;52.582;13.408;2023-03-09T01:16:32;26.52;;;14.95;;
22138;SDS011;25815;52.582;13.408;2023-03-09T01:18:58;26.33;;;14.05;;
22138;SDS011;25815;52.582;13.408;2023-03-09T01:21:24;25.45;;;14.57;;
22138;SDS011;25815;52.582;13.408;2023-03-09T01:23:50;25.33;;;14.38;;
22138;SDS011;25815;52.582;13.408;2023-03-09T01:26:16;24.85;;;13.52;;
22138;SDS011;25815;52.582;13.408;2023-03-09T01:28:43;26.33;;;13.80;;
22138;SDS011;25815;52.582;13.408;2023-03-09T01:31:10;25.92;;;13.63;;
22138;SDS011;25815;52.582;13.408;2023-03-09T01:33:36;25.90;;;14.10;;
22138;SDS011;25815;52.582;13.408;2023-03-09T01:36:03;24.33;;;13.80;;
22138;SDS011;25815;52.582;13.408;2023-03-09T01:38:29;26.05;;;13.95;;
22138;SDS011;25815;52.582;13.408;2023-03-09T01:40:55;27.02;;;14.50;;
22138;SDS011;25815;52.582;13.408;2023-03-09T01:43:33;25.30;;;13.45;;
22138;SDS011;25815;52.582;13.408;2023-03-09T01:48:44;26.00;;;13.75;;
22138;SDS011;25815;52.582;13.408;2023-03-09T01:51:10;24.85;;;13.00;;
22138;SDS011;25815;52.582;13.408;2023-03-09T01:53:36;24.50;;;13.18;;
22138;SDS011;25815;52.582;13.408;2023-03-09T01:56:02;24.48;;;12.68;;
22138;SDS011;25815;52.582;13.408;2023-03-09T01:58:28;25.15;;;12.88;;
22138;SDS011;25815;52.582;13.408;2023-03-09T02:00:55;24.45;;;12.88;;
22138;SDS011;25815;52.582;13.408;2023-03-09T02:03:22;21.70;;;12.35;;
22138;SDS011;25815;52.582;13.408;2023-03-09T02:05:55;26.15;;;13.90;;
22138;SDS011;25815;52.582;13.408;2023-03-09T02:08:22;26.33;;;13.32;;
22138;SDS011;25815;52.582;13.408;2023-03-09T02:10:51;24.20;;;13.07;;
22138;SDS011;25815;52.582;13.408;2023-03-09T02:13:19;25.02;;;12.88;;
22138;SDS011;25815;52.582;13.408;2023-03-09T02:15:46;24.05;;;13.40;;
22138;SDS011;25815;52.582;13.408;2023-03-09T02:18:12;25.05;;;13.60;;
22138;SDS011;25815;52.582;13.408;2023-03-09T02:20:41;26.77;;;14.63;;
22138;SDS011;25815;52.582;13.408;2023-03-09T02:23:12;25.60;;;13.80;;
22138;SDS011;25815;52.582;13.408;2023-03-09T02:25:47;26.35;;;13.82;;
22138;SDS011;25815;52.582;13.408;2023-03-09T02:28:14;25.65;;;14.20;;
22138;SDS011;25815;52.582;13.408;2023-03-09T02:30:40;26.55;;;13.57;;
22138;SDS011;25815;52.582;13.408;2023-03-09T02:33:12;28.67;;;14.65;;
22138;SDS011;25815;52.582;13.408;2023-03-09T02:35:45;26.25;;;13.75;;
22138;SDS011;25815;52.582;13.408;2023-03-09T02:38:12;27.05;;;13.88;;
22138;SDS011;25815;52.582;13.408;2023-03-09T02:40:41;28.05;;;13.70;;
22138;SDS011;25815;52.582;13.408;2023-03-09T02:43:07;24.88;;;13.40;;
22138;SDS011;25815;52.582;13.408;2023-03-09T02:45:33;31.52;;;14.63;;
22138;SDS011;25815;52.582;13.408;2023-03-09T02:47:59;25.50;;;13.63;;
22138;SDS011;25815;52.582;13.408;2023-03-09T02:50:25;28.02;;;15.00;;
22138;SDS011;25815;52.582;13.408;2023-03-09T02:52:51;26.65;;;13.75;;
22138;SDS011;25815;52.582;13.408;2023-03-09T02:55:18;28.52;;;13.55;;
22138;SDS011;25815;52.582;13.408;2023-03-09T02:57:44;27.33;;;14.43;;
22138;SDS011;25815;52.582;13.408;2023-03-09T03:00:10;27.83;;;14.80;;
22138;SDS011;25815;52.582;13.408;2023-03-09T03:02:37;29.08;;;14.55;;
22138;SDS011;25815;52.582;13.408;2023-03-09T03:05:04;28.00;;;14.60;;
22138;SDS011;25815;52.582;13.408;2023-03-09T03:07:30;27.98;;;14.45;;
22138;SDS011;25815;52.582;13.408;2023-03-09T03:09:56;26.58;;;13.55;;
22138;SDS011;25815;52.582;13.408;2023-03-09T03:12:22;25.90;;;13.20;;
22138;SDS011;25815;52.582;13.408;2023-03-09T03:14:48;25.35;;;13.38;;
22138;SDS011;25815;52.582;13.408;2023-03-09T03:17:14;28.88;;;13.32;;
22138;SDS011;25815;52.582;13.408;2023-03-09T03:19:40;26.60;;;13.40;;
22138;SDS011;25815;52.582;13.408;2023-03-09T03:22:06;27.88;;;14.23;;
22138;SDS011;25815;52.582;13.408;2023-03-09T03:24:38;24.77;;;12.23;;
22138;SDS011;25815;52.582;13.408;2023-03-09T03:27:04;26.73;;;13.45;;
22138;SDS011;25815;52.582;13.408;2023-03-09T03:29:30;27.17;;;12.70;;
22138;SDS011;25815;52.582;13.408;2023-03-09T03:31:56;26.73;;;13.25;;
22138;SDS011;25815;52.582;13.408;2023-03-09T03:34:22;23.42;;;12.43;;
22138;SDS011;25815;52.582;13.408;2023-03-09T03:36:48;25.17;;;12.50;;
22138;SDS011;25815;52.582;13.408;2023-03-09T03:39:14;28.55;;;13.65;;
22138;SDS011;25815;52.582;13.408;2023-03-09T03:41:40;27.50;;;13.07;;
22138;SDS011;25815;52.582;13.408;2023-03-09T03:44:06;24.35;;;12.25;;
22138;SDS011;25815;52.582;13.408;2023-03-09T03:46:32;28.80;;;13.02;;
22138;SDS011;25815;52.582;13.408;2023-03-09T03:48:58;24.90;;;12.13;;
22138;SDS011;25815;52.582;13.408;2023-03-09T03:51:24;24.98;;;12.80;;
22138;SDS011;25815;52.582;13.408;2023-03-09T03:53:50;26.70;;;13.05;;
22138;SDS011;25815;52.582;13.408;2023-03-09T03:56:16;24.08;;;12.20;;
22138;SDS011;25815;52.582;13.408;2023-03-09T03:58:42;25.23;;;11.85;;
22138;SDS011;25815;52.582;13.408;2023-03-09T04:01:08;27.45;;;11.88;;
22138;SDS011;25815;52.582;13.408;2023-03-09T04:03:34;24.23;;;11.98;;
22138;SDS011;25815;52.582;13.408;2023-03-09T04:06:00;24.55;;;12.35;;
22138;SDS011;25815;52.582;13.408;2023-03-09T04:08:30;24.05;;;11.80;;
22138;SDS011;25815;52.582;13.408;2023-03-09T04:10:56;23.25;;;12.50;;
22138;SDS011;25815;52.582;13.408;2023-03-09T04:13:22;24.10;;;12.23;;
22138;SDS011;25815;52.582;13.408;2023-03-09T04:15:48;23.85;;;11.48;;
22138;SDS011;25815;52.582;13.408;2023-03-09T04:18:14;26.92;;;12.20;;
22138;SDS011;25815;52.582;13.408;2023-03-09T04:20:40;27.25;;;13.05;;
22138;SDS011;25815;52.582;13.408;2023-03-09T04:23:07;24.88;;;12.55;;
22138;SDS011;25815;52.582;13.408;2023-03-09T04:25:34;25.98;;;13.48;;
22138;SDS011;25815;52.582;13.408;2023-03-09T04:27:59;27.40;;;13.25;;
22138;SDS011;25815;52.582;13.408;2023-03-09T04:30:25;26.98;;;13.32;;
22138;SDS011;25815;52.582;13.408;2023-03-09T04:32:51;26.42;;;14.18;;
22138;SDS011;25815;52.582;13.408;2023-03-09T04:35:17;31.35;;;15.35;;
22138;SDS011;25815;52.582;13.408;2023-03-09T04:37:43;25.58;;;14.13;;
22138;SDS011;25815;52.582;13.408;2023-03-09T04:40:09;29.27;;;14.93;;
22138;SDS011;25815;52.582;13.408;2023-03-09T04:42:35;36.50;;;15.80;;
22138;SDS011;25815;52.582;13.408;2023-03-09T04:45:02;29.73;;;14.48;;
22138;SDS011;25815;52.582;13.408;2023-03-09T04:47:28;31.05;;;15.93;;
22138;SDS011;25815;52.582;13.408;2023-03-09T04:49:54;32.42;;;16.15;;
22138;SDS011;25815;52.582;13.408;2023-03-09T04:52:20;28.25;;;15.82;;
22138;SDS011;25815;52.582;13.408;2023-03-09T04:54:46;36.35;;;16.95;;
22138;SDS011;25815;52.582;13.408;2023-03-09T04:57:12;32.60;;;16.63;;
22138;SDS011;25815;52.582;13.408;2023-03-09T04:59:38;33.72;;;16.58;;
22138;SDS011;25815;52.582;13.408;2023-03-09T05:02:04;30.25;;;16.83;;
22138;SDS011;25815;52.582;13.408;2023-03-09T05:04:30;32.20;;;16.45;;
22138;SDS011;25815;52.582;13.408;2023-03-09T05:06:56;35.67;;;17.50;;
22138;SDS011;25815;52.582;13.408;2023-03-09T05:09:22;35.30;;;16.75;;
22138;SDS011;25815;52.582;13.408;2023-03-09T05:11:49;34.25;;;16.42;;
22138;SDS011;25815;52.582;13.408;2023-03-09T05:14:17;47.55;;;17.17;;
22138;SDS011;25815;52.582;13.408;2023-03-09T05:16:43;33.30;;;16.50;;
22138;SDS011;25815;52.582;13.408;2023-03-09T05:19:09;31.48;;;17.02;;
22138;SDS011;25815;52.582;13.408;2023-03-09T05:21:36;33.00;;;16.48;;
22138;SDS011;25815;52.582;13.408;2023-03-09T05:24:02;30.20;;;16.38;;
22138;SDS011;25815;52.582;13.408;2023-03-09T05:26:28;29.08;;;15.32;;
22138;SDS011;25815;52.582;13.408;2023-03-09T05:28:54;32.30;;;15.40;;
22138;SDS011;25815;52.582;13.408;2023-03-09T05:31:19;37.28;;;16.23;;
22138;SDS011;25815;52.582;13.408;2023-03-09T05:33:45;35.05;;;15.93;;
22138;SDS011;25815;52.582;13.408;2023-03-09T05:36:14;29.83;;;15.10;;
22138;SDS011;25815;52.582;13.408;2023-03-09T05:38:40;30.77;;;16.25;;
22138;SDS011;25815;52.582;13.408;2023-03-09T05:41:06;28.75;;;15.98;;
22138;SDS011;25815;52.582;13.408;2023-03-09T05:43:32;29.55;;;15.43;;
22138;SDS011;25815;52.582;13.408;2023-03-09T05:46:01;32.43;;;16.40;;
22138;SDS011;25815;52.582;13.408;2023-03-09T05:48:27;33.65;;;15.55;;
22138;SDS011;25815;52.582;13.408;2023-03-09T05:50:53;26.63;;;14.52;;
22138;SDS011;25815;52.582;13.408;2023-03-09T05:53:18;29.85;;;15.35;;
22138;SDS011;25815;52.582;13.408;2023-03-09T05:55:49;29.13;;;15.02;;
22138;SDS011;25815;52.582;13.408;2023-03-09T05:58:15;25.48;;;14.35;;
22138;SDS011;25815;52.582;13.408;2023-03-09T06:00:41;30.58;;;15.20;;
22138;SDS011;25815;52.582;13.408;2023-03-09T06:03:07;27.67;;;14.60;;
22138;SDS011;25815;52.582;13.408;2023-03-09T06:05:33;29.13;;;14.93;;
22138;SDS011;25815;52.582;13.408;2023-03-09T06:07:59;27.88;;;14.82;;
22138;SDS011;25815;52.582;13.408;2023-03-09T06:10:25;28.45;;;14.10;;
22138;SDS011;25815;52.582;13.408;2023-03-09T06:12:51;29.80;;;15.27;;
22138;SDS011;25815;52.582;13.408;2023-03-09T06:15:17;26.40;;;14.50;;
22138;SDS011;25815;52.582;13.408;2023-03-09T06:17:43;26.23;;;13.88;;
22138;SDS011;25815;52.582;13.408;2023-03-09T06:20:09;29.40;;;14.77;;
22138;SDS011;25815;52.582;13.408;2023-03-09T06:22:35;24.75;;;14.20;;
22138;SDS011;25815;52.582;13.408;2023-03-09T06:25:01;25.95;;;14.23;;
22138;SDS011;25815;52.582;13.408;2023-03-09T06:27:27;27.77;;;14.82;;
22138;SDS011;25815;52.582;13.408;2023-03-09T06:29:53;30.13;;;14.15;;
22138;SDS011;25815;52.582;13.408;2023-03-09T06:32:20;26.55;;;14.52;;
22138;SDS011;25815;52.582;13.408;2023-03-09T06:34:46;27.40;;;14.40;;
22138;SDS011;25815;52.582;13.408;2023-03-09T06:37:12;27.45;;;14.32;;
22138;SDS011;25815;52.582;13.408;2023-03-09T06:39:38;26.77;;;14.95;;
22138;SDS011;25815;52.582;13.408;2023-03-09T06:42:05;26.02;;;13.82;;
22138;SDS011;25815;52.582;13.408;2023-03-09T06:44:31;24.92;;;14.20;;
22138;SDS011;25815;52.582;13.408;2023-03-09T06:46:56;26.33;;;14.40;;
22138;SDS011;25815;52.582;13.408;2023-03-09T06:49:22;25.10;;;13.10;;
22138;SDS011;25815;52.582;13.408;2023-03-09T06:51:48;25.58;;;13.82;;
22138;SDS011;25815;52.582;13.408;2023-03-09T06:54:14;25.15;;;14.00;;
22138;SDS011;25815;52.582;13.408;2023-03-09T06:56:41;25.08;;;14.88;;
22138;SDS011;25815;52.582;13.408;2023-03-09T06:59:07;24.48;;;14.10;;
22138;SDS011;25815;52.582;13.408;2023-03-09T07:01:32;27.02;;;15.57;;
22138;SDS011;25815;52.582;13.408;2023-03-09T07:03:59;26.55;;;14.63;;
22138;SDS011;25815;52.582;13.408;2023-03-09T07:06:25;28.88;;;14.90;;
22138;SDS011;25815;52.582;13.408;2023-03-09T07:08:51;27.10;;;13.68;;
22138;SDS011;25815;52.582;13.408;2023-03-09T07:11:17;25.85;;;14.25;;
22138;SDS011;25815;52.582;13.408;2023-03-09T07:13:43;23.45;;;14.05;;
22138;SDS011;25815;52.582;13.408;2023-03-09T07:16:09;26.13;;;13.60;;
22138;SDS011;25815;52.582;13.408;2023-03-09T07:18:35;24.27;;;13.98;;
22138;SDS011;25815;52.582;13.408;2023-03-09T07:21:02;24.73;;;13.95;;
22138;SDS011;25815;52.582;13.408;2023-03-09T07:23:29;24.63;;;13.57;;
22138;SDS011;25815;52.582;13.408;2023-03-09T07:25:58;25.33;;;13.25;;
22138;SDS011;25815;52.582;13.408;2023-03-09T07:28:24;22.13;;;13.20;;
22138;SDS011;25815;52.582;13.408;2023-03-09T07:30:50;26.17;;;13.73;;
22138;SDS011;25815;52.582;13.408;2023-03-09T07:33:16;25.00;;;13.60;;
22138;SDS011;25815;52.582;13.408;2023-03-09T07:35:42;26.15;;;14.02;;
22138;SDS011;25815;52.582;13.408;2023-03-09T07:38:08;21.70;;;13.68;;
22138;SDS011;25815;52.582;13.408;2023-03-09T07:40:34;26.42;;;13.90;;
22138;SDS011;25815;52.582;13.408;2023-03-09T07:43:01;23.13;;;13.85;;
22138;SDS011;25815;52.582;13.408;2023-03-09T07:45:27;26.98;;;13.35;;
22138;SDS011;25815;52.582;13.408;2023-03-09T07:47:53;26.85;;;13.38;;
22138;SDS011;25815;52.582;13.408;2023-03-09T07:50:19;24.55;;;13.95;;
22138;SDS011;25815;52.582;13.408;2023-03-09T07:52:45;23.33;;;13.32;;
22138;SDS011;25815;52.582;13.408;2023-03-09T07:55:11;27.55;;;13.57;;
22138;SDS011;25815;52.582;13.408;2023-03-09T07:57:38;22.65;;;13.05;;
22138;SDS011;25815;52.582;13.408;2023-03-09T08:00:05;25.30;;;14.23;;
22138;SDS011;25815;52.582;13.408;2023-03-09T08:02:36;29.20;;;14.35;;
22138;SDS011;25815;52.582;13.408;2023-03-09T08:05:02;21.40;;;13.85;;
22138;SDS011;25815;52.582;13.408;2023-03-09T08:07:30;24.05;;;14.35;;
22138;SDS011;25815;52.582;13.408;2023-03-09T08:09:56;26.48;;;15.30;;
22138;SDS011;25815;52.582;13.408;2023-03-09T08:12:22;23.90;;;15.10;;
22138;SDS011;25815;52.582;13.408;2023-03-09T08:14:48;24.50;;;14.65;;
22138;SDS011;25815;52.582;13.408;2023-03-09T08:17:14;25.45;;;15.27;;
22138;SDS011;25815;52.582;13.408;2023-03-09T08:19:40;25.70;;;15.40;;
22138;SDS011;25815;52.582;13.408;2023-03-09T08:22:06;28.45;;;15.60;;
22138;SDS011;25815;52.582;13.408;2023-03-09T08:24:31;27.63;;;15.90;;
22138;SDS011;25815;52.582;13.408;2023-03-09T08:26:58;28.25;;;15.55;;
22138;SDS011;25815;52.582;13.408;2023-03-09T08:29:23;26.67;;;15.60;;
22138;SDS011;25815;52.582;13.408;2023-03-09T08:31:49;29.17;;;16.45;;
22138;SDS011;25815;52.582;13.408;2023-03-09T08:34:17;27.83;;;16.23;;
22138;SDS011;25815;52.582;13.408;2023-03-09T08:36:43;27.33;;;15.77;;
22138;SDS011;25815;52.582;13.408;2023-03-09T08:39:09;31.02;;;17.20;;
22138;SDS011;25815;52.582;13.408;2023-03-09T08:41:35;27.60;;;16.00;;
22138;SDS011;25815;52.582;13.408;2023-03-09T08:44:01;29.17;;;16.65;;
22138;SDS011;25815;52.582;13.408;2023-03-09T08:46:27;30.10;;;17.42;;
22138;SDS011;25815;52.582;13.408;2023-03-09T08:48:53;28.67;;;16.98;;
22138;SDS011;25815;52.582;13.408;2023-03-09T08:51:21;28.60;;;17.33;;
22138;SDS011;25815;52.582;13.408;2023-03-09T08:53:47;29.10;;;16.75;;
22138;SDS011;25815;52.582;13.408;2023-03-09T08:56:12;30.13;;;16.80;;
22138;SDS011;25815;52.582;13.408;2023-03-09T08:58:38;29.55;;;17.40;;
22138;SDS011;25815;52.582;13.408;2023-03-09T09:01:05;29.40;;;16.75;;
22138;SDS011;25815;52.582;13.408;2023-03-09T09:03:33;28.55;;;17.27;;
22138;SDS011;25815;52.582;13.408;2023-03-09T09:06:06;33.05;;;18.50;;
22138;SDS011;25815;52.582;13.408;2023-03-09T09:08:33;28.92;;;18.15;;
22138;SDS011;25815;52.582;13.408;2023-03-09T09:11:03;33.63;;;18.17;;
22138;SDS011;25815;52.582;13.408;2023-03-09T09:13:29;30.67;;;18.20;;
22138;SDS011;25815;52.582;13.408;2023-03-09T09:15:55;27.50;;;17.52;;
22138;SDS011;25815;52.582;13.408;2023-03-09T09:18:21;32.95;;;18.70;;
22138;SDS011;25815;52.582;13.408;2023-03-09T09:20:47;32.45;;;18.38;;
22138;SDS011;25815;52.582;13.408;2023-03-09T09:23:14;29.20;;;18.23;;
22138;SDS011;25815;52.582;13.408;2023-03-09T09:25:40;33.58;;;17.73;;
22138;SDS011;25815;52.582;13.408;2023-03-09T09:28:06;31.50;;;18.20;;
22138;SDS011;25815;52.582;13.408;2023-03-09T09:30:32;29.77;;;18.70;;
22138;SDS011;25815;52.582;13.408;2023-03-09T09:32:58;31.92;;;18.60;;
22138;SDS011;25815;52.582;13.408;2023-03-09T09:35:24;33.00;;;18.17;;
22138;SDS011;25815;52.582;13.408;2023-03-09T09:37:50;35.20;;;19.48;;
22138;SDS011;25815;52.582;13.408;2023-03-09T09:40:19;31.27;;;18.45;;
22138;SDS011;25815;52.582;13.408;2023-03-09T09:42:45;29.33;;;18.65;;
22138;SDS011;25815;52.582;13.408;2023-03-09T09:45:31;31.60;;;19.73;;
22138;SDS011;25815;52.582;13.408;2023-03-09T09:47:58;32.55;;;18.58;;
22138;SDS011;25815;52.582;13.408;2023-03-09T09:50:28;32.83;;;19.40;;
22138;SDS011;25815;52.582;13.408;2023-03-09T09:52:59;30.63;;;18.10;;
22138;SDS011;25815;52.582;13.408;2023-03-09T09:55:28;31.83;;;18.30;;
22138;SDS011;25815;52.582;13.408;2023-03-09T09:57:59;31.58;;;18.58;;
22138;SDS011;25815;52.582;13.408;2023-03-09T10:03:56;46.33;;;20.08;;
22138;SDS011;25815;52.582;13.408;2023-03-09T10:06:17;31.27;;;17.98;;
22138;SDS011;25815;52.582;13.408;2023-03-09T10:08:46;37.65;;;19.27;;
22138;SDS011;25815;52.582;13.408;2023-03-09T10:11:16;32.40;;;18.15;;
22138;SDS011;25815;52.582;13.408;2023-03-09T10:13:46;41.95;;;20.30;;
22138;SDS011;25815;52.582;13.408;2023-03-09T10:16:17;33.72;;;20.50;;
22138;SDS011;25815;52.582;13.408;2023-03-09T10:18:45;33.00;;;19.45;;
22138;SDS011;25815;52.582;13.408;2023-03-09T10:21:15;33.00;;;19.52;;
22138;SDS011;25815;52.582;13.408;2023-03-09T10:23:43;32.55;;;19.73;;
22138;SDS011;25815;52.582;13.408;2023-03-09T10:28:51;31.55;;;19.40;;
22138;SDS011;25815;52.582;13.408;2023-03-09T10:31:22;32.78;;;19.30;;
22138;SDS011;25815;52.582;13.408;2023-03-09T10:33:57;33.60;;;19.77;;
22138;SDS011;25815;52.582;13.408;2023-03-09T10:36:31;39.72;;;20.55;;
22138;SDS011;25815;52.582;13.408;2023-03-09T10:39:00;32.95;;;18.50;;
22138;SDS011;25815;52.582;13.408;2023-03-09T10:43:53;32.72;;;19.27;;
22138;SDS011;25815;52.582;13.408;2023-03-09T10:46:24;37.17;;;19.58;;
22138;SDS011;25815;52.582;13.408;2023-03-09T10:49:08;31.98;;;19.63;;
22138;SDS011;25815;52.582;13.408;2023-03-09T10:51:35;32.42;;;19.02;;
22138;SDS011;25815;52.582;13.408;2023-03-09T10:54:19;37.65;;;20.30;;
22138;SDS011;25815;52.582;13.408;2023-03-09T10:56:47;32.47;;;19.58;;
22138;SDS011;25815;52.582;13.408;2023-03-09T10:59:17;31.60;;;18.55;;
22138;SDS011;25815;52.582;13.408;2023-03-09T11:01:44;35.55;;;19.30;;
22138;SDS011;25815;52.582;13.408;2023-03-09T11:06:49;32.10;;;20.23;;
22138;SDS011;25815;52.582;13.408;2023-03-09T11:09:18;39.35;;;21.00;;
22138;SDS011;25815;52.582;13.408;2023-03-09T11:11:47;32.80;;;20.77;;
22138;SDS011;25815;52.582;13.408;2023-03-09T11:14:24;34.58;;;20.25;;
22138;SDS011;25815;52.582;13.408;2023-03-09T11:16:52;34.20;;;19.70;;
22138;SDS011;25815;52.582;13.408;2023-03-09T11:19:18;36.35;;;20.83;;
22138;SDS011;25815;52.582;13.408;2023-03-09T11:21:50;32.13;;;20.42;;
22138;SDS011;25815;52.582;13.408;2023-03-09T11:24:16;34.08;;;19.70;;
22138;SDS011;25815;52.582;13.408;2023-03-09T11:26:52;37.13;;;20.77;;
22138;SDS011;25815;52.582;13.408;2023-03-09T11:31:54;34.47;;;20.17;;
22138;SDS011;25815;52.582;13.408;2023-03-09T11:34:33;34.03;;;20.35;;
22138;SDS011;25815;52.582;13.408;2023-03-09T11:37:01;36.55;;;21.17;;
22138;SDS011;25815;52.582;13.408;2023-03-09T11:39:35;35.78;;;21.17;;
22138;SDS011;25815;52.582;13.408;2023-03-09T11:42:03;36.47;;;20.25;;
22138;SDS011;25815;52.582;13.408;2023-03-09T11:44:31;33.70;;;20.83;;
22138;SDS011;25815;52.582;13.408;2023-03-09T11:47:02;24.55;;;14.85;;
22138;SDS011;25815;52.582;13.408;2023-03-09T11:51:55;36.47;;;20.55;;
22138;SDS011;25815;52.582;13.408;2023-03-09T11:54:29;46.25;;;22.33;;
22138;SDS011;25815;52.582;13.408;2023-03-09T11:56:56;39.45;;;22.35;;
22138;SDS011;25815;52.582;13.408;2023-03-09T11:59:28;38.85;;;21.65;;
22138;SDS011;25815;52.582;13.408;2023-03-09T12:04:39;40.65;;;21.60;;
22138;SDS011;25815;52.582;13.408;2023-03-09T12:07:06;45.83;;;21.88;;
22138;SDS011;25815;52.582;13.408;2023-03-09T12:09:51;37.72;;;21.88;;
22138;SDS011;25815;52.582;13.408;2023-03-09T12:12:33;42.80;;;23.70;;
22138;SDS011;25815;52.582;13.408;2023-03-09T12:15:05;38.85;;;23.13;;
22138;SDS011;25815;52.582;13.408;2023-03-09T12:17:37;43.20;;;22.35;;
22138;SDS011;25815;52.582;13.408;2023-03-09T12:20:04;43.47;;;22.40;;
22138;SDS011;25815;52.582;13.408;2023-03-09T12:22:31;37.10;;;22.48;;
22138;SDS011;25815;52.582;13.408;2023-03-09T12:24:59;39.35;;;22.58;;
22138;SDS011;25815;52.582;13.408;2023-03-09T12:27:29;52.97;;;24.65;;
22138;SDS011;25815;52.582;13.408;2023-03-09T12:34:52;40.20;;;22.65;;
22138;SDS011;25815;52.582;13.408;2023-03-09T12:40:01;40.45;;;22.65;;
22138;SDS011;25815;52.582;13.408;2023-03-09T12:42:37;44.38;;;23.33;;
22138;SDS011;25815;52.582;13.408;2023-03-09T12:47:44;37.63;;;23.65;;
22138;SDS011;25815;52.582;13.408;2023-03-09T12:57:44;44.67;;;24.10;;
22138;SDS011;25815;52.582;13.408;2023-03-09T13:00:20;45.28;;;24.63;;
22138;SDS011;25815;52.582;13.408;2023-03-09T13:02:51;41.97;;;23.92;;
22138;SDS011;25815;52.582;13.408;2023-03-09T13:05:22;47.08;;;25.45;;
22138;SDS011;25815;52.582;13.408;2023-03-09T13:07:53;41.03;;;24.42;;
22138;SDS011;25815;52.582;13.408;2023-03-09T13:10:26;43.97;;;26.13;;
22138;SDS011;25815;52.582;13.408;2023-03-09T13:12:53;48.50;;;27.17;;
22138;SDS011;25815;52.582;13.408;2023-03-09T13:15:21;46.42;;;24.52;;
22138;SDS011;25815;52.582;13.408;2023-03-09T13:18:30;44.20;;;24.42;;
22138;SDS011;25815;52.582;13.408;2023-03-09T13:23:08;44.78;;;25.02;;
22138;SDS011;25815;52.582;13.408;2023-03-09T13:25:39;44.38;;;25.13;;
22138;SDS011;25815;52.582;13.408;2023-03-09T13:28:11;40.20;;;24.27;;
22138;SDS011;25815;52.582;13.408;2023-03-09T13:30:40;44.03;;;24.92;;
22138;SDS011;25815;52.582;13.408;2023-03-09T13:33:12;48.42;;;24.80;;
22138;SDS011;25815;52.582;13.408;2023-03-09T13:35:40;44.08;;;25.05;;
22138;SDS011;25815;52.582;13.408;2023-03-09T13:38:14;41.85;;;24.30;;
22138;SDS011;25815;52.582;13.408;2023-03-09T13:40:46;39.50;;;23.10;;
22138;SDS011;25815;52.582;13.408;2023-03-09T13:43:14;40.85;;;24.13;;
22138;SDS011;25815;52.582;13.408;2023-03-09T13:45:43;42.72;;;24.33;;
22138;SDS011;25815;52.582;13.408;2023-03-09T13:48:18;44.53;;;24.20;;
22138;SDS011;25815;52.582;13.408;2023-03-09T13:50:44;42.55;;;24.20;;
22138;SDS011;25815;52.582;13.408;2023-03-09T13:55:39;41.78;;;24.17;;
22138;SDS011;25815;52.582;13.408;2023-03-09T13:58:15;42.92;;;23.95;;
22138;SDS011;25815;52.582;13.408;2023-03-09T14:00:52;40.95;;;24.02;;
22138;SDS011;25815;52.582;13.408;2023-03-09T14:03:18;41.00;;;23.52;;
22138;SDS011;25815;52.582;13.408;2023-03-09T14:05:52;53.35;;;23.80;;
22138;SDS011;25815;52.582;13.408;2023-03-09T14:08:19;45.33;;;24.55;;
22138;SDS011;25815;52.582;13.408;2023-03-09T14:10:46;42.67;;;23.88;;
22138;SDS011;25815;52.582;13.408;2023-03-09T14:13:13;44.65;;;24.02;;
22138;SDS011;25815;52.582;13.408;2023-03-09T14:15:41;44.47;;;24.27;;
22138;SDS011;25815;52.582;13.408;2023-03-09T14:18:25;42.00;;;24.23;;
22138;SDS011;25815;52.582;13.408;2023-03-09T14:20:51;41.92;;;24.48;;
22138;SDS011;25815;52.582;13.408;2023-03-09T14:23:23;44.63;;;25.20;;
22138;SDS011;25815;52.582;13.408;2023-03-09T14:25:57;41.47;;;24.38;;
22138;SDS011;25815;52.582;13.408;2023-03-09T14:30:49;42.00;;;23.17;;
22138;SDS011;25815;52.582;13.408;2023-03-09T14:33:22;44.80;;;25.10;;
22138;SDS011;25815;52.582;13.408;2023-03-09T14:35:49;44.53;;;23.98;;
22138;SDS011;25815;52.582;13.408;2023-03-09T14:40:41;44.80;;;25.52;;
22138;SDS011;25815;52.582;13.408;2023-03-09T14:46:06;48.38;;;25.65;;
22138;SDS011;25815;52.582;13.408;2023-03-09T14:48:33;50.70;;;25.83;;
22138;SDS011;25815;52.582;13.408;2023-03-09T14:50:58;50.30;;;25.88;;
22138;SDS011;25815;52.582;13.408;2023-03-09T14:53:24;43.92;;;24.80;;
22138;SDS011;25815;52.582;13.408;2023-03-09T14:55:50;44.08;;;24.42;;
22138;SDS011;25815;52.582;13.408;2023-03-09T14:58:16;44.28;;;24.25;;
22138;SDS011;25815;52.582;13.408;2023-03-09T15:00:42;43.17;;;24.00;;
22138;SDS011;25815;52.582;13.408;2023-03-09T15:03:08;43.25;;;24.92;;